Time,TemperatureF,DewpointF,PressureIn,WindDirection,WindDirectionDegrees,WindSpeedMPH,WindSpeedGustMPH,Humidity,HourlyPrecipIn,Conditions,Clouds,dailyrainin,SoftwareType,DateUTC
2013-02-25 00:02:00,41.2,37.0,29.99,WSW,238,1.0,-999.0,85,-99.99,,,0.00,weatherlink.com 1.10,2013-02-25 08:02:00,
2013-02-25 00:17:00,41.3,37.0,29.99,West,271,0.0,-999.0,85,-99.99,,,0.00,weatherlink.com 1.10,2013-02-25 08:17:00,
2013-02-25 00:32:00,41.1,38.0,29.99,South,189,0.0,-999.0,90,-99.99,,,0.00,weatherlink.com 1.10,2013-02-25 08:32:00,
2013-02-25 00:47:00,40.8,39.0,29.98,South,189,0.0,-999.0,93,-99.99,,,0.01,weatherlink.com 1.10,2013-02-25 08:47:00,
2013-02-25 01:02:00,40.8,39.0,29.97,NW,319,0.0,-999.0,94,-99.99,,,0.01,weatherlink.com 1.10,2013-02-25 09:02:00,
2013-02-25 01:17:00,40.6,40.0,29.97,WNW,299,0.0,-999.0,96,-99.99,,,0.02,weatherlink.com 1.10,2013-02-25 09:17:00,
2013-02-25 01:32:00,40.8,40.0,29.97,NW,308,0.0,-999.0,96,-99.99,,,0.04,weatherlink.com 1.10,2013-02-25 09:32:00,
2013-02-25 01:47:00,40.8,40.0,29.98,NW,306,0.0,-999.0,97,-99.99,,,0.07,weatherlink.com 1.10,2013-02-25 09:47:00,
2013-02-25 02:02:00,41.1,41.0,29.98,South,175,0.0,-999.0,98,-99.99,,,0.12,weatherlink.com 1.10,2013-02-25 10:02:00,
2013-02-25 02:17:00,41.1,41.0,29.99,East,89,0.0,-999.0,98,-99.99,,,0.14,weatherlink.com 1.10,2013-02-25 10:17:00,
2013-02-25 02:32:00,41.2,41.0,30.01,NNE,22,0.0,-999.0,98,-99.99,,,0.16,weatherlink.com 1.10,2013-02-25 10:32:00,
2013-02-25 02:47:00,41.3,40.0,30.01,West,263,2.0,-999.0,96,-99.99,,,0.16,weatherlink.com 1.10,2013-02-25 10:47:00,
2013-02-25 03:02:00,41.1,40.0,30.01,WNW,294,0.0,-999.0,94,-99.99,,,0.16,weatherlink.com 1.10,2013-02-25 11:02:00,
2013-02-25 03:17:00,40.6,40.0,30.01,West,266,0.0,-999.0,96,-99.99,,,0.17,weatherlink.com 1.10,2013-02-25 11:17:00,
2013-02-25 03:32:00,40.8,40.0,30.02,SW,234,0.0,-999.0,96,-99.99,,,0.18,weatherlink.com 1.10,2013-02-25 11:32:00,
2013-02-25 03:47:00,40.8,39.0,30.04,SSW,198,1.0,-999.0,94,-99.99,,,0.18,weatherlink.com 1.10,2013-02-25 11:47:00,
2013-02-25 04:02:00,41.1,39.0,30.04,West,280,2.0,-999.0,92,-99.99,,,0.18,weatherlink.com 1.10,2013-02-25 12:02:00,
2013-02-25 04:17:00,40.5,39.0,30.05,SW,236,5.0,-999.0,93,-99.99,,,0.20,weatherlink.com 1.10,2013-02-25 12:17:00,
2013-02-25 04:32:00,40.2,38.0,30.05,NW,308,3.0,-999.0,93,-99.99,,,0.21,weatherlink.com 1.10,2013-02-25 12:32:00,
2013-02-25 04:47:00,40.1,38.0,30.07,WSW,253,0.0,-999.0,93,-99.99,,,0.24,weatherlink.com 1.10,2013-02-25 12:47:00,
2013-02-25 05:02:00,39.2,38.0,30.07,SSE,153,0.0,-999.0,95,-99.99,,,0.24,weatherlink.com 1.10,2013-02-25 13:02:00,
2013-02-25 05:17:00,38.6,38.0,30.07,South,183,0.0,-999.0,96,-99.99,,,0.24,weatherlink.com 1.10,2013-02-25 13:17:00,
2013-02-25 05:32:00,38.9,38.0,30.09,NNW,340,2.0,-999.0,97,-99.99,,,0.25,weatherlink.com 1.10,2013-02-25 13:32:00,
2013-02-25 05:47:00,38.9,38.0,30.09,West,267,4.0,-999.0,97,-99.99,,,0.25,weatherlink.com 1.10,2013-02-25 13:47:00,
2013-02-25 06:03:00,39.2,39.0,30.10,SW,225,0.0,-999.0,97,-99.99,,,0.26,weatherlink.com 1.10,2013-02-25 14:03:00,
2013-02-25 06:17:00,38.9,38.0,30.10,South,184,0.0,-999.0,97,-99.99,,,0.26,weatherlink.com 1.10,2013-02-25 14:17:00,
2013-02-25 06:32:00,38.8,38.0,30.10,South,184,0.0,-999.0,98,-99.99,,,0.26,weatherlink.com 1.10,2013-02-25 14:32:00,
2013-02-25 06:47:00,38.9,38.0,30.12,South,184,0.0,-999.0,98,-99.99,,,0.26,weatherlink.com 1.10,2013-02-25 14:47:00,
2013-02-25 07:02:00,38.9,38.0,30.12,WSW,242,0.0,-999.0,98,-99.99,,,0.26,weatherlink.com 1.10,2013-02-25 15:02:00,
2013-02-25 07:17:00,38.8,38.0,30.13,WSW,242,0.0,-999.0,98,-99.99,,,0.26,weatherlink.com 1.10,2013-02-25 15:17:00,
2013-02-25 07:32:00,38.8,38.0,30.12,ENE,64,0.0,-999.0,98,-99.99,,,0.27,weatherlink.com 1.10,2013-02-25 15:32:00,
2013-02-25 07:47:00,38.8,38.0,30.13,South,170,0.0,-999.0,98,-99.99,,,0.28,weatherlink.com 1.10,2013-02-25 15:47:00,
2013-02-25 08:02:00,38.8,38.0,30.14,South,178,0.0,-999.0,98,-99.99,,,0.31,weatherlink.com 1.10,2013-02-25 16:02:00,
2013-02-25 08:17:00,38.2,38.0,30.14,South,178,0.0,-999.0,98,-99.99,,,0.32,weatherlink.com 1.10,2013-02-25 16:17:00,
2013-02-25 08:32:00,38.6,38.0,30.15,ESE,103,0.0,-999.0,98,-99.99,,,0.32,weatherlink.com 1.10,2013-02-25 16:32:00,
2013-02-25 08:47:00,39.5,39.0,30.16,SE,130,0.0,-999.0,99,-99.99,,,0.32,weatherlink.com 1.10,2013-02-25 16:47:00,
2013-02-25 09:02:00,39.6,39.0,30.16,WSW,238,6.0,-999.0,99,-99.99,,,0.33,weatherlink.com 1.10,2013-02-25 17:02:00,
2013-02-25 09:19:00,39.8,39.0,30.16,ESE,119,0.0,-999.0,98,-99.99,,,0.33,weatherlink.com 1.10,2013-02-25 17:19:00,
2013-02-25 09:33:00,40.2,40.0,30.18,East,86,0.0,-999.0,98,-99.99,,,0.33,weatherlink.com 1.10,2013-02-25 17:33:00,
2013-02-25 09:48:00,40.6,40.0,30.18,ENE,77,0.0,-999.0,98,-99.99,,,0.34,weatherlink.com 1.10,2013-02-25 17:48:00,
2013-02-25 10:03:00,40.6,40.0,30.18,South,172,0.0,-999.0,98,-99.99,,,0.35,weatherlink.com 1.10,2013-02-25 18:03:00,
2013-02-25 10:17:00,40.9,40.0,30.18,East,94,0.0,-999.0,98,-99.99,,,0.36,weatherlink.com 1.10,2013-02-25 18:17:00,
2013-02-25 10:33:00,42.2,42.0,30.18,South,190,0.0,-999.0,98,-99.99,,,0.36,weatherlink.com 1.10,2013-02-25 18:33:00,
2013-02-25 10:48:00,42.6,42.0,30.19,SSW,194,1.0,-999.0,97,-99.99,,,0.36,weatherlink.com 1.10,2013-02-25 18:48:00,
2013-02-25 11:03:00,43.3,43.0,30.18,NNW,344,0.0,-999.0,97,-99.99,,,0.36,weatherlink.com 1.10,2013-02-25 19:03:00,
2013-02-25 11:17:00,43.8,42.0,30.18,East,82,0.0,-999.0,94,-99.99,,,0.36,weatherlink.com 1.10,2013-02-25 19:17:00,
2013-02-25 11:33:00,45.1,43.0,30.19,WSW,241,0.0,-999.0,93,-99.99,,,0.36,weatherlink.com 1.10,2013-02-25 19:33:00,
2013-02-25 11:48:00,45.1,42.0,30.19,ENE,71,0.0,-999.0,88,-99.99,,,0.36,weatherlink.com 1.10,2013-02-25 19:48:00,
2013-02-25 12:03:00,44.2,40.0,30.19,WNW,291,0.0,-999.0,85,-99.99,,,0.37,weatherlink.com 1.10,2013-02-25 20:03:00,
2013-02-25 12:18:00,41.1,38.0,30.20,SW,235,3.0,-999.0,90,-99.99,,,0.41,weatherlink.com 1.10,2013-02-25 20:18:00,
2013-02-25 12:33:00,41.1,40.0,30.20,WSW,244,0.0,-999.0,95,-99.99,,,0.42,weatherlink.com 1.10,2013-02-25 20:33:00,
2013-02-25 12:48:00,41.2,39.0,30.19,West,274,3.0,-999.0,93,-99.99,,,0.42,weatherlink.com 1.10,2013-02-25 20:48:00,
2013-02-25 13:03:00,42.3,41.0,30.19,SW,234,0.0,-999.0,94,-99.99,,,0.42,weatherlink.com 1.10,2013-02-25 21:03:00,
2013-02-25 13:18:00,44.1,41.0,30.19,WSW,248,0.0,-999.0,87,-99.99,,,0.42,weatherlink.com 1.10,2013-02-25 21:18:00,
2013-02-25 13:33:00,44.8,42.0,30.19,SW,214,0.0,-999.0,89,-99.99,,,0.42,weatherlink.com 1.10,2013-02-25 21:33:00,
2013-02-25 13:48:00,44.2,41.0,30.19,NW,315,4.0,-999.0,88,-99.99,,,0.42,weatherlink.com 1.10,2013-02-25 21:48:00,
2013-02-25 14:04:00,44.6,37.0,30.19,West,279,5.0,-999.0,76,-99.99,,,0.42,weatherlink.com 1.10,2013-02-25 22:04:00,
2013-02-25 14:19:00,45.5,38.0,30.19,East,87,2.0,-999.0,76,-99.99,,,0.42,weatherlink.com 1.10,2013-02-25 22:19:00,
2013-02-25 14:33:00,44.8,35.0,30.19,WSW,247,1.0,-999.0,69,-99.99,,,0.42,weatherlink.com 1.10,2013-02-25 22:33:00,
2013-02-25 14:48:00,41.9,38.0,30.21,SW,232,4.0,-999.0,87,-99.99,,,0.43,weatherlink.com 1.10,2013-02-25 22:48:00,
2013-02-25 15:03:00,40.6,39.0,30.21,WSW,257,0.0,-999.0,93,-99.99,,,0.44,weatherlink.com 1.10,2013-02-25 23:03:00,
2013-02-25 15:18:00,41.3,40.0,30.21,NW,319,0.0,-999.0,93,-99.99,,,0.44,weatherlink.com 1.10,2013-02-25 23:18:00,
2013-02-25 15:33:00,41.3,40.0,30.22,WSW,251,0.0,-999.0,94,-99.99,,,0.44,weatherlink.com 1.10,2013-02-25 23:33:00,
2013-02-25 15:48:00,41.1,40.0,30.22,SSE,158,0.0,-999.0,95,-99.99,,,0.44,weatherlink.com 1.10,2013-02-25 23:48:00,
2013-02-25 16:04:00,41.6,40.0,30.22,South,173,0.0,-999.0,95,-99.99,,,0.44,weatherlink.com 1.10,2013-02-26 00:04:00,
2013-02-25 16:18:00,41.6,40.0,30.22,WNW,285,0.0,-999.0,95,-99.99,,,0.44,weatherlink.com 1.10,2013-02-26 00:18:00,
2013-02-25 16:33:00,41.1,39.0,30.23,NW,309,3.0,-999.0,91,-99.99,,,0.45,weatherlink.com 1.10,2013-02-26 00:33:00,
2013-02-25 16:48:00,40.5,39.0,30.23,South,172,1.0,-999.0,93,-99.99,,,0.45,weatherlink.com 1.10,2013-02-26 00:48:00,
2013-02-25 17:03:00,40.1,39.0,30.23,West,271,0.0,-999.0,94,-99.99,,,0.45,weatherlink.com 1.10,2013-02-26 01:03:00,
2013-02-25 17:17:00,39.8,39.0,30.23,SSE,150,0.0,-999.0,95,-99.99,,,0.45,weatherlink.com 1.10,2013-02-26 01:17:00,
2013-02-25 17:33:00,39.5,38.0,30.23,SW,231,0.0,-999.0,94,-99.99,,,0.46,weatherlink.com 1.10,2013-02-26 01:33:00,
2013-02-25 17:47:00,39.2,38.0,30.24,WNW,298,0.0,-999.0,95,-99.99,,,0.46,weatherlink.com 1.10,2013-02-26 01:47:00,
2013-02-25 18:04:00,38.6,38.0,30.24,WNW,298,0.0,-999.0,96,-99.99,,,0.46,weatherlink.com 1.10,2013-02-26 02:04:00,
2013-02-25 18:18:00,38.0,37.0,30.24,WNW,298,0.0,-999.0,96,-99.99,,,0.46,weatherlink.com 1.10,2013-02-26 02:18:00,
2013-02-25 18:33:00,37.3,36.0,30.25,NW,312,0.0,-999.0,96,-99.99,,,0.46,weatherlink.com 1.10,2013-02-26 02:33:00,
2013-02-25 18:48:00,37.0,36.0,30.26,NW,312,0.0,-999.0,96,-99.99,,,0.46,weatherlink.com 1.10,2013-02-26 02:48:00,
2013-02-25 19:04:00,37.0,36.0,30.26,NW,312,0.0,-999.0,97,-99.99,,,0.46,weatherlink.com 1.10,2013-02-26 03:04:00,
2013-02-25 19:19:00,37.5,37.0,30.26,NW,322,0.0,-999.0,97,-99.99,,,0.46,weatherlink.com 1.10,2013-02-26 03:19:00,
2013-02-25 19:34:00,37.2,36.0,30.26,West,275,0.0,-999.0,96,-99.99,,,0.47,weatherlink.com 1.10,2013-02-26 03:34:00,
2013-02-25 19:49:00,36.6,36.0,30.26,WSW,256,0.0,-999.0,96,-99.99,,,0.47,weatherlink.com 1.10,2013-02-26 03:49:00,
2013-02-25 20:03:00,36.5,36.0,30.26,WSW,256,0.0,-999.0,97,-99.99,,,0.47,weatherlink.com 1.10,2013-02-26 04:03:00,
2013-02-25 20:18:00,36.5,36.0,30.26,WSW,251,0.0,-999.0,97,-99.99,,,0.47,weatherlink.com 1.10,2013-02-26 04:18:00,
2013-02-25 20:32:00,36.9,36.0,30.26,West,281,2.0,-999.0,96,-99.99,,,0.47,weatherlink.com 1.10,2013-02-26 04:32:00,
2013-02-25 20:49:00,37.8,36.0,30.27,WSW,241,0.0,-999.0,94,-99.99,,,0.47,weatherlink.com 1.10,2013-02-26 04:49:00,
2013-02-25 21:03:00,37.6,36.0,30.28,SW,234,0.0,-999.0,94,-99.99,,,0.47,weatherlink.com 1.10,2013-02-26 05:03:00,
2013-02-25 21:18:00,37.2,36.0,30.29,SSW,212,0.0,-999.0,95,-99.99,,,0.47,weatherlink.com 1.10,2013-02-26 05:18:00,
2013-02-25 21:33:00,36.8,36.0,30.29,SSW,212,0.0,-999.0,96,-99.99,,,0.47,weatherlink.com 1.10,2013-02-26 05:33:00,
2013-02-25 21:48:00,36.5,36.0,30.29,SSW,212,0.0,-999.0,96,-99.99,,,0.47,weatherlink.com 1.10,2013-02-26 05:48:00,
2013-02-25 22:03:00,36.0,35.0,30.29,SSW,212,0.0,-999.0,97,-99.99,,,0.47,weatherlink.com 1.10,2013-02-26 06:03:00,
2013-02-25 22:18:00,36.5,36.0,30.29,SSW,212,0.0,-999.0,97,-99.99,,,0.47,weatherlink.com 1.10,2013-02-26 06:18:00,
2013-02-25 22:33:00,36.2,36.0,30.29,SSW,212,0.0,-999.0,97,-99.99,,,0.47,weatherlink.com 1.10,2013-02-26 06:33:00,
2013-02-25 22:48:00,35.5,35.0,30.29,SSW,212,0.0,-999.0,97,-99.99,,,0.47,weatherlink.com 1.10,2013-02-26 06:48:00,
2013-02-25 23:03:00,35.0,34.0,30.29,SSW,212,0.0,-999.0,97,-99.99,,,0.47,weatherlink.com 1.10,2013-02-26 07:03:00,
2013-02-25 23:18:00,34.7,34.0,30.30,SSW,212,0.0,-999.0,98,-99.99,,,0.47,weatherlink.com 1.10,2013-02-26 07:18:00,
2013-02-25 23:33:00,34.3,34.0,30.30,SSW,212,0.0,-999.0,98,-99.99,,,0.47,weatherlink.com 1.10,2013-02-26 07:33:00,
2013-02-25 23:48:00,34.4,34.0,30.29,SSW,212,0.0,-999.0,98,-99.99,,,0.47,weatherlink.com 1.10,2013-02-26 07:48:00,